Time,TemperatureF,DewpointF,PressureIn,WindDirection,WindDirectionDegrees,WindSpeedMPH,WindSpeedGustMPH,Humidity,HourlyPrecipIn,Conditions,Clouds,dailyrainin,SoftwareType,DateUTC
2013-07-05 00:01:00,69.0,68.0,30.01,SSW,213,0.0,0.0,95,0.00,,,0.71,,2013-07-05 04:01:00,
2013-07-05 00:11:00,69.0,68.0,30.01,SSW,213,0.0,0.0,95,0.00,,,0.71,,2013-07-05 04:11:00,
2013-07-05 00:22:00,69.0,68.0,30.01,SSW,213,0.0,0.0,95,0.00,,,0.71,,2013-07-05 04:22:00,
2013-07-05 00:33:00,69.0,68.0,30.02,SSW,213,0.0,0.0,95,0.00,,,0.71,,2013-07-05 04:33:00,
2013-07-05 00:43:00,68.0,67.0,30.02,SSW,200,0.0,0.0,95,0.01,,,0.72,,2013-07-05 04:43:00,
2013-07-05 00:53:00,68.0,67.0,30.03,SW,217,5.0,8.0,95,0.01,,,0.72,,2013-07-05 04:53:00,
2013-07-05 01:01:00,68.0,67.0,30.03,SW,217,5.0,8.0,95,0.01,,,0.72,,2013-07-05 05:01:00,
2013-07-05 01:12:00,68.0,67.0,30.03,SSW,209,3.0,6.0,95,0.01,,,0.72,,2013-07-05 05:12:00,
2013-07-05 01:22:00,68.0,67.0,30.03,ENE,78,0.0,0.0,95,0.01,,,0.72,,2013-07-05 05:22:00,
2013-07-05 01:33:00,68.0,67.0,30.02,SW,216,0.0,0.0,95,0.00,,,0.72,,2013-07-05 05:33:00,
2013-07-05 01:43:00,68.0,67.0,30.02,SW,216,0.0,0.0,95,0.00,,,0.72,,2013-07-05 05:43:00,
2013-07-05 01:52:00,68.0,67.0,30.03,SW,216,0.0,0.0,95,0.00,,,0.72,,2013-07-05 05:52:00,
2013-07-05 02:02:00,68.0,67.0,30.02,SW,216,0.0,0.0,95,0.00,,,0.72,,2013-07-05 06:02:00,
2013-07-05 02:13:00,68.0,67.0,30.01,SW,216,0.0,0.0,95,0.00,,,0.72,,2013-07-05 06:13:00,
2013-07-05 02:23:00,67.0,66.0,30.01,SW,216,0.0,0.0,95,0.00,,,0.72,,2013-07-05 06:23:00,
2013-07-05 02:34:00,67.0,66.0,30.02,SW,216,0.0,0.0,95,0.00,,,0.72,,2013-07-05 06:34:00,
2013-07-05 02:44:00,67.0,66.0,30.02,SW,216,0.0,0.0,95,0.00,,,0.72,,2013-07-05 06:44:00,
2013-07-05 02:53:00,67.0,66.0,30.02,SW,216,0.0,0.0,95,0.00,,,0.72,,2013-07-05 06:53:00,
2013-07-05 03:02:00,67.0,66.0,30.02,SW,216,0.0,0.0,95,0.00,,,0.72,,2013-07-05 07:02:00,
2013-07-05 03:12:00,67.0,66.0,30.02,SW,216,0.0,0.0,95,0.00,,,0.72,,2013-07-05 07:12:00,
2013-07-05 03:23:00,67.0,66.0,30.01,SW,216,0.0,0.0,95,0.00,,,0.72,,2013-07-05 07:23:00,
2013-07-05 03:34:00,67.0,66.0,30.01,SW,216,0.0,0.0,95,0.00,,,0.72,,2013-07-05 07:34:00,
2013-07-05 03:43:00,67.0,66.0,30.00,East,88,0.0,0.0,95,0.00,,,0.72,,2013-07-05 07:43:00,
2013-07-05 03:53:00,67.0,66.0,30.01,East,88,0.0,0.0,95,0.00,,,0.72,,2013-07-05 07:53:00,
2013-07-05 04:03:00,67.0,66.0,30.00,SSW,200,0.0,0.0,95,0.00,,,0.72,,2013-07-05 08:03:00,
2013-07-05 04:12:00,67.0,66.0,30.01,SSW,203,2.0,5.0,95,0.00,,,0.72,,2013-07-05 08:12:00,
2013-07-05 04:23:00,67.0,66.0,30.00,SSW,211,1.0,6.0,95,0.00,,,0.72,,2013-07-05 08:23:00,
2013-07-05 04:33:00,66.0,65.0,30.00,SSW,195,0.0,0.0,95,0.00,,,0.72,,2013-07-05 08:33:00,
2013-07-05 04:44:00,66.0,65.0,29.99,SSW,195,0.0,0.0,95,0.00,,,0.72,,2013-07-05 08:44:00,
2013-07-05 04:55:00,66.0,65.0,29.99,SSW,195,0.0,0.0,95,0.00,,,0.72,,2013-07-05 08:55:00,
2013-07-05 05:08:00,66.0,65.0,29.99,SSW,195,0.0,0.0,95,0.00,,,0.72,,2013-07-05 09:08:00,
2013-07-05 05:16:00,66.0,65.0,30.00,SSW,195,0.0,0.0,95,0.00,,,0.72,,2013-07-05 09:16:00,
2013-07-05 05:26:00,66.0,65.0,29.99,SSE,160,2.0,6.0,95,0.00,,,0.72,,2013-07-05 09:26:00,
2013-07-05 05:37:00,66.0,65.0,30.00,SE,143,0.0,0.0,95,0.00,,,0.72,,2013-07-05 09:37:00,
2013-07-05 05:48:00,66.0,65.0,30.00,SE,143,0.0,0.0,95,0.00,,,0.72,,2013-07-05 09:48:00,
2013-07-05 05:54:00,66.0,65.0,30.01,SE,143,0.0,0.0,95,0.00,,,0.72,,2013-07-05 09:54:00,
2013-07-05 06:07:00,66.0,65.0,30.01,SE,143,0.0,0.0,95,0.00,,,0.72,,2013-07-05 10:07:00,
2013-07-05 06:26:00,66.0,65.0,30.01,SE,143,0.0,0.0,95,0.00,,,0.72,,2013-07-05 10:26:00,
2013-07-05 06:37:00,66.0,65.0,30.01,SE,143,0.0,0.0,95,0.00,,,0.72,,2013-07-05 10:37:00,
2013-07-05 06:47:00,66.0,65.0,30.01,SE,143,0.0,0.0,95,0.00,,,0.72,,2013-07-05 10:47:00,
2013-07-05 06:55:00,67.0,66.0,30.00,East,88,0.0,0.0,95,0.00,,,0.72,,2013-07-05 10:55:00,
2013-07-05 07:09:00,66.0,65.0,30.01,SE,143,0.0,0.0,95,0.00,,,0.72,,2013-07-05 11:09:00,
2013-07-05 07:18:00,66.0,65.0,30.02,SE,143,0.0,0.0,95,0.00,,,0.73,,2013-07-05 11:18:00,
2013-07-05 07:25:00,66.0,65.0,30.02,SE,143,0.0,0.0,95,0.01,,,0.73,,2013-07-05 11:25:00,
2013-07-05 07:37:00,66.0,65.0,30.02,SE,143,0.0,0.0,95,0.01,,,0.73,,2013-07-05 11:37:00,
2013-07-05 07:47:00,66.0,65.0,30.02,SE,143,0.0,0.0,95,0.01,,,0.73,,2013-07-05 11:47:00,
2013-07-05 07:57:00,66.0,65.0,30.02,SE,143,0.0,0.0,95,0.01,,,0.73,,2013-07-05 11:57:00,
2013-07-05 08:09:00,66.0,65.0,30.02,SE,143,0.0,0.0,95,0.01,,,0.73,,2013-07-05 12:09:00,
2013-07-05 08:16:00,67.0,66.0,30.02,SE,143,0.0,0.0,95,0.00,,,0.73,,2013-07-05 12:16:00,
2013-07-05 08:37:00,67.0,66.0,30.03,SE,143,0.0,0.0,95,0.00,,,0.73,,2013-07-05 12:37:00,
2013-07-05 08:56:00,67.0,66.0,30.03,SE,143,0.0,0.0,95,0.00,,,0.73,,2013-07-05 12:56:00,
2013-07-05 09:06:00,67.0,66.0,30.04,SSE,147,0.0,0.0,95,0.00,,,0.73,,2013-07-05 13:06:00,
2013-07-05 09:13:00,68.0,67.0,30.05,South,169,0.0,0.0,95,0.00,,,0.73,,2013-07-05 13:13:00,
2013-07-05 09:25:00,68.0,67.0,30.04,South,169,0.0,0.0,95,0.00,,,0.72,,2013-07-05 13:25:00,
2013-07-05 09:39:00,66.0,65.0,30.02,SE,143,0.0,0.0,95,0.00,,,0.73,,2013-07-05 13:39:00,
2013-07-05 09:48:00,68.0,67.0,30.05,SSW,199,0.0,0.0,95,0.00,,,0.72,,2013-07-05 13:48:00,
2013-07-05 09:55:00,68.0,67.0,30.05,SSW,199,0.0,0.0,95,0.00,,,0.72,,2013-07-05 13:55:00,
2013-07-05 10:07:00,68.0,67.0,30.05,SSW,199,0.0,0.0,95,0.00,,,0.72,,2013-07-05 14:07:00,
2013-07-05 10:16:00,68.0,67.0,30.06,SSW,199,0.0,0.0,95,0.00,,,0.71,,2013-07-05 14:16:00,
2013-07-05 10:37:00,69.0,68.0,30.05,SSW,199,0.0,0.0,95,0.00,,,0.70,,2013-07-05 14:37:00,
2013-07-05 10:46:00,69.0,68.0,30.05,SSW,199,0.0,0.0,95,0.00,,,0.69,,2013-07-05 14:46:00,
2013-07-05 10:55:00,70.0,68.0,30.05,SSW,199,0.0,0.0,95,0.00,,,0.65,,2013-07-05 14:55:00,
2013-07-05 11:07:00,70.0,68.0,30.06,SSW,199,0.0,0.0,95,0.00,,,0.62,,2013-07-05 15:07:00,
2013-07-05 11:24:00,70.0,68.0,30.06,South,179,0.0,0.0,95,0.00,,,0.60,,2013-07-05 15:24:00,
2013-07-05 11:34:00,70.0,68.0,30.06,South,179,0.0,0.0,95,0.00,,,0.59,,2013-07-05 15:34:00,
2013-07-05 12:11:00,72.0,70.0,30.06,South,179,0.0,0.0,95,0.00,,,0.58,,2013-07-05 16:11:00,
2013-07-05 13:02:00,74.0,72.0,30.05,SSW,203,0.0,2.0,95,0.00,,,0.57,,2013-07-05 17:02:00,
2013-07-05 13:12:00,74.0,72.0,30.05,SSW,203,0.0,2.0,95,0.00,,,0.57,,2013-07-05 17:12:00,
2013-07-05 13:22:00,74.0,72.0,30.05,SSW,193,0.0,0.0,95,0.00,,,0.56,,2013-07-05 17:22:00,
2013-07-05 13:43:00,73.0,71.0,30.05,SW,216,1.0,0.0,95,0.01,,,0.55,,2013-07-05 17:43:00,
2013-07-05 14:11:00,74.0,72.0,30.04,East,100,2.0,5.0,95,0.01,,,0.48,,2013-07-05 18:11:00,
2013-07-05 14:33:00,75.0,73.0,30.04,NE,45,0.0,0.0,95,0.01,,,0.43,,2013-07-05 18:33:00,
2013-07-05 14:43:00,75.0,73.0,30.04,ESE,114,0.0,0.0,93,0.00,,,0.37,,2013-07-05 18:43:00,
2013-07-05 14:53:00,75.0,73.0,30.04,ESE,114,0.0,0.0,93,0.00,,,0.37,,2013-07-05 18:53:00,
2013-07-05 15:34:00,75.0,71.0,30.02,East,88,5.0,7.0,88,0.00,,,0.26,,2013-07-05 19:34:00,
2013-07-05 15:53:00,76.0,72.0,30.03,ENE,73,0.0,0.0,87,0.00,,,0.25,,2013-07-05 19:53:00,
2013-07-05 16:02:00,76.0,71.0,30.03,East,88,0.0,3.0,85,0.00,,,0.23,,2013-07-05 20:02:00,
2013-07-05 16:33:00,76.0,70.0,30.02,East,89,2.0,5.0,81,0.00,,,0.18,,2013-07-05 20:33:00,
2013-07-05 16:43:00,77.0,70.0,30.02,ENE,76,1.0,5.0,79,0.00,,,0.16,,2013-07-05 20:43:00,
2013-07-05 17:01:00,77.0,70.0,30.02,NE,38,0.0,0.0,78,0.00,,,0.15,,2013-07-05 21:01:00,
2013-07-05 17:12:00,78.0,70.0,30.01,ENE,68,0.0,0.0,76,0.00,,,0.15,,2013-07-05 21:12:00,
2013-07-05 17:34:00,78.0,69.0,30.01,SW,226,0.0,0.0,75,0.00,,,0.15,,2013-07-05 21:34:00,
2013-07-05 17:43:00,78.0,69.0,30.01,South,175,0.0,0.0,75,0.00,,,0.14,,2013-07-05 21:43:00,
2013-07-05 17:53:00,78.0,69.0,30.01,South,175,0.0,0.0,73,0.00,,,0.13,,2013-07-05 21:53:00,
2013-07-05 18:02:00,78.0,69.0,30.00,South,176,1.0,5.0,73,0.00,,,0.12,,2013-07-05 22:02:00,
2013-07-05 18:11:00,78.0,69.0,30.00,SSE,167,0.0,0.0,73,0.00,,,0.12,,2013-07-05 22:11:00,
2013-07-05 18:22:00,78.0,69.0,30.00,SSE,167,0.0,0.0,73,0.00,,,0.12,,2013-07-05 22:22:00,
2013-07-05 18:34:00,78.0,69.0,30.00,SSE,167,0.0,0.0,75,0.00,,,0.12,,2013-07-05 22:34:00,
2013-07-05 18:43:00,78.0,69.0,30.00,SSE,167,0.0,0.0,75,0.00,,,0.12,,2013-07-05 22:43:00,
2013-07-05 18:53:00,77.0,68.0,30.00,SSE,167,0.0,0.0,75,0.00,,,0.12,,2013-07-05 22:53:00,
2013-07-05 19:02:00,77.0,69.0,30.00,SSE,167,0.0,0.0,76,0.00,,,0.11,,2013-07-05 23:02:00,
2013-07-05 19:11:00,77.0,70.0,30.00,East,86,0.0,0.0,78,0.00,,,0.11,,2013-07-05 23:11:00,
2013-07-05 19:23:00,77.0,70.0,30.00,East,86,0.0,0.0,78,0.00,,,0.11,,2013-07-05 23:23:00,
2013-07-05 19:32:00,76.0,69.0,30.00,ESE,106,0.0,0.0,78,0.00,,,0.11,,2013-07-05 23:32:00,
2013-07-05 19:43:00,76.0,69.0,30.00,East,86,0.0,0.0,78,0.00,,,0.11,,2013-07-05 23:43:00,
2013-07-05 19:53:00,76.0,69.0,30.00,East,100,0.0,0.0,79,0.00,,,0.11,,2013-07-05 23:53:00,
2013-07-05 20:01:00,76.0,69.0,30.00,East,99,0.0,0.0,79,0.00,,,0.11,,2013-07-06 00:01:00,
2013-07-05 20:12:00,76.0,69.0,30.00,East,99,0.0,0.0,80,0.00,,,0.11,,2013-07-06 00:12:00,
2013-07-05 20:22:00,75.0,69.0,30.00,SE,137,0.0,0.0,81,0.00,,,0.11,,2013-07-06 00:22:00,
2013-07-05 20:33:00,75.0,69.0,30.00,SE,137,0.0,0.0,81,0.00,,,0.10,,2013-07-06 00:33:00,
2013-07-05 20:42:00,75.0,69.0,30.00,South,185,1.0,0.0,82,0.00,,,0.10,,2013-07-06 00:42:00,
2013-07-05 20:53:00,75.0,69.0,30.00,SSW,197,0.0,3.0,83,0.00,,,0.09,,2013-07-06 00:53:00,
2013-07-05 21:02:00,74.0,69.0,30.00,SW,215,0.0,0.0,84,0.00,,,0.09,,2013-07-06 01:02:00,
2013-07-05 21:12:00,74.0,69.0,30.00,South,178,2.0,5.0,85,0.00,,,0.08,,2013-07-06 01:12:00,
2013-07-05 21:22:00,74.0,69.0,30.00,South,178,2.0,5.0,85,0.00,,,0.08,,2013-07-06 01:22:00,
2013-07-05 21:33:00,74.0,69.0,30.00,South,189,0.0,0.0,85,0.00,,,0.08,,2013-07-06 01:33:00,
2013-07-05 21:43:00,73.0,69.0,30.00,South,189,0.0,0.0,87,0.00,,,0.06,,2013-07-06 01:43:00,
2013-07-05 21:53:00,73.0,69.0,30.00,South,189,0.0,0.0,87,0.00,,,0.06,,2013-07-06 01:53:00,
2013-07-05 22:34:00,73.0,70.0,30.01,South,189,0.0,0.0,90,0.00,,,0.04,,2013-07-06 02:34:00,
2013-07-05 22:43:00,73.0,71.0,30.02,SSW,199,0.0,3.0,92,0.00,,,0.03,,2013-07-06 02:43:00,
2013-07-05 22:53:00,73.0,71.0,30.02,SSW,199,0.0,3.0,92,0.00,,,0.03,,2013-07-06 02:53:00,
2013-07-05 23:02:00,72.0,70.0,30.03,SE,138,0.0,0.0,92,0.00,,,0.03,,2013-07-06 03:02:00,
2013-07-05 23:52:00,72.0,70.0,30.02,SSW,206,0.0,0.0,95,0.00,,,0.03,,2013-07-06 03:52:00,